Time;durP1;ratioP1;P1;durP2;ratioP2;P2;SDS_P1;SDS_P2;PMS_P1;PMS_P2;Temp;Humidity;BMP_temperature;BMP_pressure;BME280_temperature;BME280_humidity;BME280_pressure;Samples;Min_cycle;Max_cycle;Signal;HPM_P1;HPM_P2
2022/10/10 00:00:35;;;;;;;5.68;4.47;;;;;;;8.05;88.84;101492.16;5072500;28;20020;-35
2022/10/10 00:03:01;;;;;;;5.47;4.05;;;;;;;8.09;89.37;101495.28;5073611;28;20048;-35
2022/10/10 00:05:26;;;;;;;5.80;4.37;;;;;;;8.04;89.42;101486.97;5072828;28;20453;-35
2022/10/10 00:07:52;;;;;;;5.78;4.32;;;;;;;8.11;89.61;101485.16;5072667;28;20082;-35
2022/10/10 00:10:17;;;;;;;6.30;3.80;;;;;;;8.04;86.53;101485.09;5072571;28;20077;-35
2022/10/10 00:12:42;;;;;;;6.27;4.40;;;;;;;8.07;88.71;101489.28;5073416;28;20028;-35
2022/10/10 00:15:10;;;;;;;7.67;4.50;;;;;;;8.10;89.94;101488.88;5073224;28;20103;-35
2022/10/10 00:17:36;;;;;;;5.90;4.40;;;;;;;8.10;90.22;101487.03;5072881;28;20033;-35
2022/10/10 00:20:01;;;;;;;6.73;4.47;;;;;;;8.13;90.40;101477.69;5072980;28;20104;-35
2022/10/10 00:22:26;;;;;;;5.97;4.30;;;;;;;8.01;87.26;101474.75;5072625;28;20404;-35
2022/10/10 00:24:52;;;;;;;7.13;4.23;;;;;;;8.08;89.14;101482.84;5072326;28;20123;-35
2022/10/10 00:27:17;;;;;;;5.57;3.83;;;;;;;8.06;90.68;101484.94;5072333;28;20528;-35
2022/10/10 00:29:42;;;;;;;6.23;4.33;;;;;;;8.08;89.68;101477.47;5072489;28;20077;-35
2022/10/10 00:32:07;;;;;;;7.30;4.37;;;;;;;8.09;90.28;101485.34;5073073;28;20027;-35
2022/10/10 00:34:33;;;;;;;5.40;4.10;;;;;;;8.04;90.39;101477.03;5072227;28;20433;-35
2022/10/10 00:36:58;;;;;;;9.77;4.10;;;;;;;7.97;89.91;101476.19;5072637;28;20028;-34
2022/10/10 00:39:23;;;;;;;8.00;4.33;;;;;;;7.93;90.73;101470.34;5054505;28;20031;-35
2022/10/10 00:41:49;;;;;;;9.07;4.60;;;;;;;7.97;90.67;101474.31;5072719;28;20077;-35
2022/10/10 00:44:14;;;;;;;5.17;4.40;;;;;;;8.07;90.84;101475.81;5075406;28;20037;-35
2022/10/10 00:46:41;;;;;;;7.13;4.70;;;;;;;7.99;91.25;101472.25;5076261;28;20028;-35
2022/10/10 00:49:12;;;;;;;7.97;4.60;;;;;;;7.99;90.99;101472.25;5076587;28;20104;-35
2022/10/10 00:51:37;;;;;;;5.80;4.43;;;;;;;8.06;91.57;101469.59;5076737;28;20032;-35
2022/10/10 00:54:06;;;;;;;7.72;4.45;;;;;;;8.03;91.10;101467.28;5076753;28;20064;-35
2022/10/10 00:56:38;;;;;;;6.20;4.55;;;;;;;8.07;91.64;101465.88;5076342;28;20070;-35
2022/10/10 00:59:05;;;;;;;5.68;4.28;;;;;;;8.03;90.92;101456.53;5076438;28;20449;-35
2022/10/10 01:01:31;;;;;;;5.53;4.20;;;;;;;8.09;91.92;101461.09;5076107;28;20036;-35
2022/10/10 01:03:58;;;;;;;5.80;4.68;;;;;;;8.05;91.17;101464.38;5076078;28;20097;-35
2022/10/10 01:06:23;;;;;;;5.90;4.20;;;;;;;8.09;91.56;101454.88;5076100;28;20056;-35
2022/10/10 01:08:49;;;;;;;6.40;4.17;;;;;;;8.02;91.42;101454.03;5076589;28;20116;-35
2022/10/10 01:11:25;;;;;;;9.70;4.70;;;;;;;8.00;91.27;101455.06;5075918;28;20025;-35
2022/10/10 01:14:10;;;;;;;4.95;4.10;;;;;;;8.02;91.40;101451.34;5076393;28;20028;-35
2022/10/10 01:16:47;;;;;;;5.72;4.28;;;;;;;7.91;91.29;101437.41;5076052;28;20356;-35
2022/10/10 01:19:12;;;;;;;6.88;4.70;;;;;;;7.98;91.75;101448.22;5075576;28;20035;-35
2022/10/10 01:22:01;;;;;;;9.17;4.80;;;;;;;7.99;91.27;101449.88;5075793;28;20516;-35
2022/10/10 01:24:41;;;;;;;5.80;4.63;;;;;;;8.01;91.85;101447.81;5058107;28;20039;-35
2022/10/10 01:27:39;;;;;;;5.47;3.97;;;;;;;8.01;91.97;101450.50;5075523;28;20075;-35
2022/10/10 01:30:17;;;;;;;4.80;4.30;;;;;;;7.95;91.39;101435.97;5062527;28;20119;-35
2022/10/10 01:32:47;;;;;;;7.38;4.82;;;;;;;7.95;91.97;101438.69;5075554;28;20025;-35
2022/10/10 01:35:24;;;;;;;9.27;4.78;;;;;;;7.88;92.40;101432.41;5075524;28;20032;-35
2022/10/10 01:37:59;;;;;;;4.72;4.18;;;;;;;7.95;92.68;101443.22;5075500;28;20110;-35
2022/10/10 01:40:32;;;;;;;7.40;4.22;;;;;;;7.95;92.97;101443.22;5075465;28;20029;-35
2022/10/10 01:43:05;;;;;;;6.70;4.47;;;;;;;7.93;92.22;101434.50;5075872;28;20035;-35
2022/10/10 01:45:30;;;;;;;7.25;4.80;;;;;;;7.87;92.87;101438.84;5075516;28;20048;-35
2022/10/10 01:48:00;;;;;;;4.82;4.30;;;;;;;7.86;93.42;101423.72;5075538;28;20409;-35
2022/10/10 01:50:26;;;;;;;8.48;5.00;;;;;;;7.79;92.96;101422.81;5074934;28;20024;-35
2022/10/10 01:53:16;;;;;;;6.22;4.47;;;;;;;7.86;93.08;101429.09;5075410;28;20043;-35
2022/10/10 01:56:07;;;;;;;8.10;5.38;;;;;;;7.86;92.86;101428.28;5075679;28;20039;-35
2022/10/10 01:58:47;;;;;;;5.97;4.20;;;;;;;7.82;92.49;101419.75;5074955;28;20029;-35
2022/10/10 02:01:25;;;;;;;7.97;4.90;;;;;;;7.75;92.67;101406.22;5075321;28;20031;-35
2022/10/10 02:04:04;;;;;;;6.05;4.43;;;;;;;7.80;93.75;101418.28;5075444;28;20028;-35
2022/10/10 02:06:37;;;;;;;6.20;4.70;;;;;;;7.82;93.84;101416.22;5074609;28;20048;-35
2022/10/10 02:09:07;;;;;;;9.68;5.30;;;;;;;7.77;93.11;101413.31;5075607;28;20055;-35
2022/10/10 02:11:37;;;;;;;6.65;4.80;;;;;;;7.77;93.04;101414.13;5075404;28;20051;-35
2022/10/10 02:14:23;;;;;;;7.18;4.90;;;;;;;7.79;94.13;101403.97;5057163;28;20036;-35
2022/10/10 02:16:53;;;;;;;6.40;4.82;;;;;;;7.84;93.88;101404.22;5074474;28;20492;-35
2022/10/10 02:19:21;;;;;;;8.85;4.95;;;;;;;7.81;93.92;101403.78;5074983;28;20031;-35
2022/10/10 02:21:49;;;;;;;5.30;4.50;;;;;;;7.82;93.13;101405.47;5074888;28;20020;-35
2022/10/10 02:24:16;;;;;;;7.13;4.57;;;;;;;7.74;93.65;101398.34;5074945;28;20028;-35
2022/10/10 02:26:45;;;;;;;10.48;4.97;;;;;;;7.84;93.93;101398.81;5074794;28;20032;-35
2022/10/10 02:29:21;;;;;;;7.80;4.40;;;;;;;7.81;93.69;101403.78;5074761;28;20433;-35
2022/10/10 02:31:57;;;;;;;11.00;5.28;;;;;;;7.80;94.96;101397.56;5074666;28;20028;-35
2022/10/10 02:34:31;;;;;;;7.30;4.77;;;;;;;7.75;94.20;101394.63;5074714;28;20415;-35
2022/10/10 02:37:00;;;;;;;5.80;4.30;;;;;;;7.69;94.47;101388.19;5074621;28;20028;-35
2022/10/10 02:39:30;;;;;;;7.78;4.68;;;;;;;7.72;94.56;101390.50;5074370;28;20086;-35
2022/10/10 02:41:55;;;;;;;8.90;5.00;;;;;;;7.71;94.48;101386.16;5074565;28;20101;-35
2022/10/10 02:44:23;;;;;;;7.03;4.63;;;;;;;7.73;94.59;101378.69;5074188;28;20029;-35
2022/10/10 02:46:48;;;;;;;7.13;4.70;;;;;;;7.70;94.62;101381.75;5074171;28;20048;-35
2022/10/10 02:49:22;;;;;;;5.33;4.50;;;;;;;7.71;95.06;101378.06;5074138;28;20032;-35
2022/10/10 02:51:48;;;;;;;7.18;5.03;;;;;;;7.70;94.56;101380.94;5074560;28;20046;-35
2022/10/10 02:54:13;;;;;;;7.23;4.80;;;;;;;7.70;95.44;101380.94;5074647;28;20050;-35
2022/10/10 02:56:38;;;;;;;7.40;5.00;;;;;;;7.63;94.78;101372.00;5073682;28;20043;-35
2022/10/10 02:59:03;;;;;;;5.47;4.70;;;;;;;7.66;95.37;101374.28;5074271;28;20071;-35
2022/10/10 03:01:29;;;;;;;8.97;4.93;;;;;;;7.64;94.40;101371.81;5055916;28;20128;-35
2022/10/10 03:03:54;;;;;;;7.60;5.10;;;;;;;7.65;94.51;101372.63;5074708;28;20029;-35
2022/10/10 03:06:19;;;;;;;10.53;5.30;;;;;;;7.55;94.51;101353.31;5073263;28;20443;-35
2022/10/10 03:08:44;;;;;;;7.93;4.70;;;;;;;7.62;94.34;101368.50;5073810;28;20036;-35
2022/10/10 03:11:10;;;;;;;6.30;5.07;;;;;;;7.60;94.78;101358.94;5073662;28;20044;-35
2022/10/10 03:13:35;;;;;;;5.25;3.80;;;;;;;7.52;95.30;101351.03;5073728;28;20020;-35
2022/10/10 03:16:01;;;;;;;8.03;5.20;;;;;;;7.60;94.93;101358.94;5073587;28;20063;-35
2022/10/10 03:18:26;;;;;;;5.67;4.40;;;;;;;7.59;95.05;101359.97;5073179;28;20025;-35
2022/10/10 03:20:54;;;;;;;5.82;4.72;;;;;;;7.54;94.99;101365.13;5073463;28;20036;-35
2022/10/10 03:23:22;;;;;;;9.02;4.25;;;;;;;7.51;95.17;101360.13;5073720;28;20032;-35
2022/10/10 03:25:47;;;;;;;7.70;4.78;;;;;;;7.56;95.36;101360.34;5073874;28;20039;-35
2022/10/10 03:28:13;;;;;;;7.87;5.10;;;;;;;7.53;95.54;101356.22;5073653;28;20032;-35
2022/10/10 03:30:38;;;;;;;8.32;4.63;;;;;;;7.54;95.96;101359.75;5073310;28;20302;-35
2022/10/10 03:33:05;;;;;;;8.30;5.15;;;;;;;7.45;95.87;101362.56;5073498;28;20060;-34
2022/10/10 03:35:30;;;;;;;;;;;;;;;7.57;94.59;101353.97;5073584;28;20029;-35
2022/10/10 03:37:56;;;;;;;6.77;4.37;;;;;;;7.40;94.27;101353.44;5073152;28;19934;-35
2022/10/10 03:40:22;;;;;;;6.07;4.53;;;;;;;7.36;95.78;101352.16;5073669;28;20294;-34
2022/10/10 03:42:47;;;;;;;7.97;4.80;;;;;;;7.33;95.44;101353.41;5073142;28;20075;-35
2022/10/10 03:45:12;;;;;;;6.30;4.97;;;;;;;7.40;95.61;101365.03;5073091;28;20060;-35
2022/10/10 03:47:38;;;;;;;7.63;4.90;;;;;;;7.33;95.55;101360.66;5073356;28;20131;-35
2022/10/10 03:50:04;;;;;;;7.63;4.50;;;;;;;7.32;95.83;101358.97;5073519;28;20028;-35
2022/10/10 03:52:29;;;;;;;8.13;4.97;;;;;;;7.28;95.54;101371.19;5072722;28;20020;-35
2022/10/10 03:54:54;;;;;;;7.70;5.03;;;;;;;7.19;96.40;101357.88;5073423;28;20063;-34
2022/10/10 03:57:20;;;;;;;9.43;5.33;;;;;;;7.21;95.73;101363.03;5073072;28;20021;-35
2022/10/10 03:59:45;;;;;;;5.70;4.37;;;;;;;7.16;96.53;101363.63;5073122;28;20028;-35
2022/10/10 04:02:10;;;;;;;5.53;4.53;;;;;;;7.16;96.33;101360.09;5073218;28;20162;-35
2022/10/10 04:04:35;;;;;;;6.50;5.07;;;;;;;7.12;96.35;101358.84;5073096;28;20380;-35
2022/10/10 04:07:01;;;;;;;6.83;4.00;;;;;;;7.15;96.61;101361.97;5072638;28;20058;-35
2022/10/10 04:09:26;;;;;;;7.50;4.60;;;;;;;7.08;96.70;101357.59;5072761;28;20058;-35
2022/10/10 04:11:51;;;;;;;6.63;4.83;;;;;;;7.00;96.53;101353.16;5073063;28;20032;-35
2022/10/10 04:14:17;;;;;;;10.93;5.33;;;;;;;6.96;96.99;101341.97;5072723;28;20043;-35
2022/10/10 04:16:42;;;;;;;5.07;4.43;;;;;;;6.99;97.53;101356.06;5072896;28;20067;-35
2022/10/10 04:19:07;;;;;;;5.93;4.27;;;;;;;6.91;96.52;101349.78;5072291;28;20040;-35
2022/10/10 04:21:33;;;;;;;6.50;4.40;;;;;;;6.82;94.38;101348.25;5072686;28;20033;-35
2022/10/10 04:23:58;;;;;;;7.13;4.80;;;;;;;6.74;94.42;101353.78;5055303;28;20115;-35
2022/10/10 04:26:23;;;;;;;6.60;4.20;;;;;;;6.74;96.21;101348.41;5072611;28;20066;-35
2022/10/10 04:28:49;;;;;;;7.40;4.67;;;;;;;6.66;96.15;101343.16;5072860;28;20098;-35
2022/10/10 04:31:14;;;;;;;5.63;4.50;;;;;;;6.66;95.48;101357.44;5072834;28;20067;-35
2022/10/10 04:33:39;;;;;;;7.50;5.20;;;;;;;6.63;97.43;101348.91;5072574;28;20035;-35
2022/10/10 04:36:05;;;;;;;5.77;4.63;;;;;;;6.64;98.62;101358.66;5072608;28;20036;-34
2022/10/10 04:38:30;;;;;;;6.40;4.90;;;;;;;6.62;97.99;101363.38;5072557;28;20032;-35
2022/10/10 04:40:56;;;;;;;5.00;4.00;;;;;;;6.58;96.81;101360.22;5072492;28;20626;-35
2022/10/10 04:43:21;;;;;;;5.50;4.90;;;;;;;6.50;96.80;101351.50;5072772;28;20031;-34
2022/10/10 04:45:46;;;;;;;5.33;4.47;;;;;;;6.39;94.64;101350.97;5072207;28;20047;-35
2022/10/10 04:48:12;;;;;;;6.97;4.80;;;;;;;6.48;97.33;101353.53;5072820;28;20028;-34
2022/10/10 04:50:38;;;;;;;4.70;4.20;;;;;;;6.39;95.88;101355.50;5072247;28;20047;-34
2022/10/10 04:53:03;;;;;;;8.65;5.05;;;;;;;6.37;96.74;101347.63;5071865;28;20028;-35
2022/10/10 04:55:28;;;;;;;6.33;5.00;;;;;;;6.43;96.89;101352.22;5072544;28;20028;-35
2022/10/10 04:57:54;;;;;;;5.30;4.40;;;;;;;6.31;97.60;101334.97;5071894;28;20104;-34
2022/10/10 05:00:19;;;;;;;4.80;4.07;;;;;;;6.38;97.61;101351.97;5071869;28;20025;-35
2022/10/10 05:02:44;;;;;;;5.57;4.43;;;;;;;6.16;96.52;101336.88;5072275;28;20170;-35
2022/10/10 05:05:10;;;;;;;6.57;4.73;;;;;;;6.34;97.94;101345.31;5072644;28;20032;-35
2022/10/10 05:07:35;;;;;;;5.80;3.80;;;;;;;6.16;95.55;101334.19;5072015;28;20337;-35
2022/10/10 05:10:01;;;;;;;7.13;4.00;;;;;;;6.18;95.23;101351.78;5072545;28;20054;-34
2022/10/10 05:12:26;;;;;;;7.10;4.75;;;;;;;6.18;96.90;101346.41;5072664;28;20116;-35
2022/10/10 05:14:52;;;;;;;8.50;4.50;;;;;;;6.03;96.91;101323.31;5072426;28;20033;-34
2022/10/10 05:17:17;;;;;;;6.93;4.60;;;;;;;6.07;96.24;101340.69;5072039;28;20074;-34
2022/10/10 05:19:43;;;;;;;7.18;4.55;;;;;;;6.00;96.40;101345.97;5072030;28;20040;-34
2022/10/10 05:22:08;;;;;;;6.47;4.13;;;;;;;6.08;98.24;101342.34;5071846;28;20028;-35
2022/10/10 05:24:34;;;;;;;6.67;4.50;;;;;;;5.94;97.23;101334.13;5072665;28;20032;-35
2022/10/10 05:26:59;;;;;;;8.80;4.73;;;;;;;6.01;98.69;101334.25;5071657;28;20028;-35
2022/10/10 05:29:24;;;;;;;6.53;4.37;;;;;;;6.09;98.23;101344.84;5073281;28;20028;-34
2022/10/10 05:31:50;;;;;;;4.73;4.03;;;;;;;6.03;98.67;101339.41;5075905;28;20033;-35
2022/10/10 05:34:15;;;;;;;6.60;4.50;;;;;;;5.86;99.19;101326.19;5075505;28;20327;-35
2022/10/10 05:36:41;;;;;;;7.97;4.90;;;;;;;6.11;100.00;101350.88;5075530;28;20107;-35
2022/10/10 05:39:07;;;;;;;9.27;4.90;;;;;;;6.12;100.00;101352.53;5075762;28;20028;-34
2022/10/10 05:41:32;;;;;;;9.38;4.97;;;;;;;6.19;100.00;101349.91;5075297;28;20529;-35
2022/10/10 05:43:57;;;;;;;7.70;4.27;;;;;;;6.20;100.00;101346.22;5075369;28;20040;-34
2022/10/10 05:46:25;;;;;;;6.57;4.53;;;;;;;6.16;100.00;101344.94;5075515;28;20029;-35
2022/10/10 05:48:52;;;;;;;5.65;4.05;;;;;;;6.18;100.00;101354.44;5075454;28;20021;-35
2022/10/10 05:51:17;;;;;;;7.38;4.05;;;;;;;6.22;100.00;101349.53;5075813;28;20067;-35
2022/10/10 05:53:43;;;;;;;6.75;4.22;;;;;;;6.22;100.00;101346.03;5074923;28;20048;-35
2022/10/10 05:56:08;;;;;;;8.87;4.50;;;;;;;6.14;99.58;101357.72;5075424;28;20024;-35
2022/10/10 05:58:34;;;;;;;9.23;4.95;;;;;;;6.22;100.00;101354.09;5074737;28;20020;-35
2022/10/10 06:01:04;;;;;;;6.00;4.57;;;;;;;6.21;100.00;101355.13;5075007;28;20040;-35
2022/10/10 06:03:30;;;;;;;9.73;4.75;;;;;;;6.05;100.00;101334.66;5075032;28;20043;-35
2022/10/10 06:05:56;;;;;;;7.07;4.20;;;;;;;6.17;100.00;101351.97;5074458;28;20024;-35
2022/10/10 06:08:21;;;;;;;8.15;4.00;;;;;;;6.18;100.00;101359.00;5056786;28;20040;-35
2022/10/10 06:10:47;;;;;;;9.43;4.10;;;;;;;6.28;100.00;101347.94;5075323;28;20062;-35
2022/10/10 06:13:15;;;;;;;6.85;4.68;;;;;;;6.29;100.00;101355.81;5075039;28;20028;-35
2022/10/10 06:15:41;;;;;;;9.07;4.85;;;;;;;6.28;100.00;101358.69;5074932;28;20035;-35
2022/10/10 06:18:07;;;;;;;6.78;3.97;;;;;;;6.23;100.00;101355.75;5074617;28;20025;-35
2022/10/10 06:20:37;;;;;;;8.30;4.47;;;;;;;6.17;100.00;101360.84;5074613;28;20031;-34
2022/10/10 06:23:04;;;;;;;6.05;4.10;;;;;;;6.28;100.00;101362.22;5074979;28;20348;-35
2022/10/10 06:25:31;;;;;;;5.47;3.75;;;;;;;6.32;100.00;101363.50;5074679;28;20033;-35
2022/10/10 06:27:57;;;;;;;6.47;3.85;;;;;;;6.33;100.00;101362.47;5074606;28;20054;-35
2022/10/10 06:30:22;;;;;;;6.87;4.00;;;;;;;6.38;100.00;101354.66;5074522;28;20111;-35
2022/10/10 06:32:47;;;;;;;6.40;3.87;;;;;;;6.41;100.00;101358.84;5074569;28;20431;-35
2022/10/10 06:35:13;;;;;;;6.93;3.67;;;;;;;6.53;100.00;101356.47;5074453;28;20346;-35
2022/10/10 06:37:38;;;;;;;8.03;4.20;;;;;;;6.67;100.00;101355.56;5074321;28;20051;-35
2022/10/10 06:40:04;;;;;;;8.13;4.70;;;;;;;6.72;100.00;101361.19;5074583;28;20074;-35
2022/10/10 06:42:29;;;;;;;5.75;4.05;;;;;;;6.71;100.00;101354.16;5073779;28;20031;-34
2022/10/10 06:44:54;;;;;;;7.33;4.57;;;;;;;6.85;100.00;101366.69;5074256;28;20029;-35
2022/10/10 06:47:20;;;;;;;5.87;4.13;;;;;;;6.82;100.00;101375.13;5074545;28;20028;-35
2022/10/10 06:49:45;;;;;;;7.27;4.10;;;;;;;6.78;100.00;101359.59;5074438;28;20052;-35
2022/10/10 06:52:10;;;;;;;10.20;4.53;;;;;;;6.85;100.00;101355.94;5074423;28;20108;-35
2022/10/10 06:54:35;;;;;;;8.27;4.97;;;;;;;7.04;100.00;101365.19;5074123;28;20077;-35
2022/10/10 06:57:01;;;;;;;6.67;4.43;;;;;;;7.15;100.00;101374.59;5074189;28;20079;-35
2022/10/10 06:59:26;;;;;;;12.88;5.32;;;;;;;7.16;100.00;101379.75;5073952;28;20103;-35
2022/10/10 07:01:52;;;;;;;11.97;5.77;;;;;;;7.37;100.00;101376.22;5073659;28;20512;-35
2022/10/10 07:04:17;;;;;;;7.80;4.90;;;;;;;7.46;100.00;101375.00;5055538;28;20488;-35
2022/10/10 07:06:42;;;;;;;9.20;5.10;;;;;;;7.58;100.00;101371.78;5073925;28;20143;-35
2022/10/10 07:09:08;;;;;;;7.87;5.27;;;;;;;7.75;100.00;101375.78;5074017;28;20346;-35
2022/10/10 07:11:33;;;;;;;10.87;5.30;;;;;;;7.77;100.00;101370.22;5073605;28;20484;-35
2022/10/10 07:13:59;;;;;;;11.02;5.63;;;;;;;7.86;100.00;101361.78;5074172;28;20098;-35
2022/10/10 07:16:24;;;;;;;9.63;4.87;;;;;;;8.04;100.00;101381.94;5073346;28;20079;-35
2022/10/10 07:18:50;;;;;;;7.88;5.03;;;;;;;8.08;100.00;101380.50;5073464;28;20025;-35
2022/10/10 07:21:15;;;;;;;8.50;4.90;;;;;;;8.21;100.00;101378.69;5073460;28;20063;-35
2022/10/10 07:23:41;;;;;;;10.27;5.73;;;;;;;8.35;100.00;101384.97;5073335;28;20036;-35
2022/10/10 07:26:09;;;;;;;9.87;4.90;;;;;;;8.48;100.00;101387.69;5073457;28;20029;-35
2022/10/10 07:28:35;;;;;;;7.95;4.80;;;;;;;8.43;100.00;101344.34;5073391;28;20060;-35
2022/10/10 07:31:07;;;;;;;10.60;4.80;;;;;;;8.81;100.00;101375.31;5073081;28;20068;-35
2022/10/10 07:33:38;;;;;;;8.90;4.75;;;;;;;8.88;100.00;101368.03;5073361;28;20028;-35
2022/10/10 07:36:04;;;;;;;8.65;4.63;;;;;;;9.16;100.00;101389.41;5073194;28;20032;-35
2022/10/10 07:38:30;;;;;;;;;;;;;;;9.25;100.00;101386.31;5074134;28;20487;-35
2022/10/10 07:40:55;;;;;;;9.52;4.53;;;;;;;9.45;100.00;101385.44;5073359;28;19912;-35
2022/10/10 07:43:20;;;;;;;12.20;5.30;;;;;;;9.62;100.00;101386.69;5073911;28;20040;-35
2022/10/10 07:45:46;;;;;;;9.13;4.63;;;;;;;9.75;100.00;101396.59;5073779;28;20024;-35
2022/10/10 07:48:11;;;;;;;11.63;4.93;;;;;;;9.85;100.00;101405.09;5073594;28;20032;-35
2022/10/10 07:50:40;;;;;;;10.80;4.70;;;;;;;9.96;100.00;101406.31;5072729;28;20025;-35
2022/10/10 07:53:06;;;;;;;7.15;4.38;;;;;;;10.02;100.00;101408.16;5073106;28;20051;-35
2022/10/10 07:55:32;;;;;;;;;;;;;;;10.10;100.00;101413.31;5073915;28;20036;-35
2022/10/10 07:57:58;;;;;;;7.80;4.55;;;;;;;10.17;100.00;101408.72;5073288;28;20245;-35
2022/10/10 08:00:23;;;;;;;8.43;4.55;;;;;;;10.20;100.00;101402.91;5073378;28;20032;-35
2022/10/10 08:02:50;;;;;;;6.97;4.50;;;;;;;10.25;100.00;101410.41;5073309;28;20479;-35
2022/10/10 08:05:16;;;;;;;9.88;4.65;;;;;;;10.37;100.00;101416.78;5072832;28;20274;-35
2022/10/10 08:07:41;;;;;;;8.88;4.57;;;;;;;10.41;100.00;101420.69;5073081;28;20111;-35
2022/10/10 08:10:08;;;;;;;9.70;4.60;;;;;;;10.47;100.00;101410.91;5072802;28;20082;-35
2022/10/10 08:12:34;;;;;;;11.75;5.53;;;;;;;10.64;100.00;101431.00;5073449;28;20028;-35
2022/10/10 08:14:59;;;;;;;12.32;4.82;;;;;;;10.71;100.00;101423.66;5072702;28;20048;-35
2022/10/10 08:17:25;;;;;;;9.02;5.03;;;;;;;10.76;99.83;101409.47;5072435;28;20472;-35
2022/10/10 08:19:50;;;;;;;9.50;5.20;;;;;;;10.86;99.73;101407.09;5072480;28;20025;-35
2022/10/10 08:22:15;;;;;;;10.13;5.10;;;;;;;10.91;99.77;101406.44;5073218;28;20247;-35
2022/10/10 08:24:40;;;;;;;8.17;4.63;;;;;;;11.00;99.78;101407.84;5072939;28;20491;-35
2022/10/10 08:27:06;;;;;;;7.57;4.17;;;;;;;11.05;99.42;101408.00;5073183;28;20032;-35
2022/10/10 08:29:32;;;;;;;8.43;4.53;;;;;;;11.06;98.82;101412.38;5072632;28;20024;-35
2022/10/10 08:31:57;;;;;;;5.95;4.00;;;;;;;11.07;98.99;101405.91;5072370;28;20389;-35
2022/10/10 08:34:23;;;;;;;7.10;4.30;;;;;;;11.11;98.72;101422.53;5072632;28;20032;-35
2022/10/10 08:36:48;;;;;;;7.93;4.30;;;;;;;11.14;99.25;101405.88;5072473;28;20032;-35
2022/10/10 08:39:15;;;;;;;9.43;4.63;;;;;;;11.20;99.03;101410.38;5072888;28;20033;-35
2022/10/10 08:41:52;;;;;;;8.27;4.35;;;;;;;11.33;98.66;101411.09;5072308;28;20489;-35
2022/10/10 08:44:23;;;;;;;7.65;4.40;;;;;;;11.47;98.86;101414.53;5072714;28;20161;-35
2022/10/10 08:46:55;;;;;;;6.85;3.75;;;;;;;11.59;97.86;101423.56;5072513;28;20028;-35
2022/10/10 08:49:30;;;;;;;8.63;4.55;;;;;;;11.79;97.53;101415.22;5072992;28;20074;-35
2022/10/10 08:52:02;;;;;;;10.63;4.15;;;;;;;11.90;96.92;101418.28;5072361;28;20036;-35
2022/10/10 08:54:30;;;;;;;10.05;4.00;;;;;;;12.02;96.50;101414.59;5073063;28;20131;-35
2022/10/10 08:56:58;;;;;;;7.85;4.20;;;;;;;12.17;96.11;101413.38;5072282;28;20060;-35
2022/10/10 08:59:29;;;;;;;8.60;4.38;;;;;;;12.26;95.86;101415.53;5072401;28;20032;-35
2022/10/10 09:02:13;;;;;;;7.32;4.22;;;;;;;12.32;95.20;101413.81;5072805;28;20040;-35
2022/10/10 09:04:39;;;;;;;7.00;3.95;;;;;;;12.50;94.61;101418.38;5074367;28;20040;-35
2022/10/10 09:07:18;;;;;;;16.10;4.17;;;;;;;12.67;93.98;101416.66;5076295;28;20476;-35
2022/10/10 09:10:01;;;;;;;6.55;4.00;;;;;;;12.70;93.34;101413.50;5076674;28;20063;-35
2022/10/10 09:12:40;;;;;;;9.48;4.50;;;;;;;12.87;92.93;101425.31;5076308;28;20429;-35
2022/10/10 09:15:22;;;;;;;8.85;4.00;;;;;;;12.91;92.60;101425.69;5075828;28;20050;-35
2022/10/10 09:18:02;;;;;;;8.40;4.10;;;;;;;12.98;92.19;101431.88;5075861;28;20025;-35
2022/10/10 09:20:46;;;;;;;7.25;3.85;;;;;;;13.09;91.51;101433.75;5076144;28;20048;-35
2022/10/10 09:23:20;;;;;;;10.48;4.00;;;;;;;13.33;91.49;101431.94;5076157;28;20101;-35
2022/10/10 09:25:54;;;;;;;6.35;3.63;;;;;;;13.49;89.72;101433.13;5075926;28;20424;-35
2022/10/10 09:28:41;;;;;;;7.55;3.75;;;;;;;13.62;90.08;101434.78;5076024;28;20032;-35
2022/10/10 09:31:18;;;;;;;;;;;;;;;13.73;91.16;101438.56;5076506;28;20054;-35
2022/10/10 09:33:47;;;;;;;5.50;3.33;;;;;;;13.82;88.78;101442.56;5075527;28;20292;-35
2022/10/10 09:36:18;;;;;;;5.65;3.17;;;;;;;13.89;86.81;101446.81;5076199;28;20052;-35
2022/10/10 09:38:53;;;;;;;8.48;3.58;;;;;;;13.95;86.92;101442.31;5076103;28;20039;-35
2022/10/10 09:41:26;;;;;;;7.40;3.47;;;;;;;13.94;86.32;101443.38;5075716;28;20390;-35
2022/10/10 09:43:57;;;;;;;8.93;3.63;;;;;;;14.01;87.52;101449.53;5075514;28;20131;-35
2022/10/10 09:46:24;;;;;;;7.28;3.40;;;;;;;14.00;86.46;101458.72;5076024;28;20020;-35
2022/10/10 09:48:51;;;;;;;6.30;3.38;;;;;;;14.06;86.01;101457.78;5075514;28;20029;-35
2022/10/10 09:51:18;;;;;;;5.43;2.80;;;;;;;14.12;86.22;101456.00;5075397;28;20029;-35
2022/10/10 09:53:46;;;;;;;6.00;3.10;;;;;;;14.20;85.90;101462.94;5075422;28;20044;-35
2022/10/10 09:56:21;;;;;;;7.65;3.22;;;;;;;14.29;87.20;101464.22;5075534;28;20139;-35
2022/10/10 09:58:51;;;;;;;6.60;3.03;;;;;;;14.32;86.30;101461.03;5075796;28;20029;-35
2022/10/10 10:01:24;;;;;;;10.63;3.55;;;;;;;14.28;86.25;101457.16;5076006;28;20029;-35
2022/10/10 10:04:06;;;;;;;7.53;3.25;;;;;;;14.27;85.45;101460.94;5075769;28;20025;-35
2022/10/10 10:06:32;;;;;;;7.13;3.10;;;;;;;14.28;85.38;101462.59;5075357;28;20025;-35
2022/10/10 10:09:03;;;;;;;9.32;3.33;;;;;;;14.27;85.74;101471.81;5075342;28;20040;-35
2022/10/10 10:11:38;;;;;;;6.75;3.17;;;;;;;14.27;86.06;101463.66;5074749;28;20029;-35
2022/10/10 10:14:04;;;;;;;5.95;3.20;;;;;;;14.25;85.52;101463.06;5075208;28;20417;-35
2022/10/10 10:16:38;;;;;;;11.05;3.22;;;;;;;14.20;85.81;101454.78;5074028;28;20024;-35
2022/10/10 10:19:06;;;;;;;6.68;3.10;;;;;;;14.28;86.18;101460.69;5075582;28;20024;-35
2022/10/10 10:21:47;;;;;;;11.82;3.10;;;;;;;14.27;86.62;101471.81;5075071;28;20032;-35
2022/10/10 10:24:23;;;;;;;8.23;3.28;;;;;;;14.24;86.28;101470.38;5075844;28;20368;-35
2022/10/10 10:26:49;;;;;;;7.03;3.17;;;;;;;14.25;86.12;101476.66;5074920;28;20048;-34
2022/10/10 10:29:27;;;;;;;9.45;3.38;;;;;;;14.35;86.91;101468.72;5075702;28;20388;-34
2022/10/10 10:31:56;;;;;;;6.70;3.40;;;;;;;14.50;85.52;101479.13;5074882;28;20039;-34
2022/10/10 10:34:57;;;;;;;4.68;2.90;;;;;;;14.72;85.12;101466.47;5074609;28;20025;-34
2022/10/10 10:37:33;;;;;;;7.93;3.03;;;;;;;15.03;83.83;101469.75;5074980;28;20050;-34
2022/10/10 10:40:27;;;;;;;6.72;3.20;;;;;;;15.19;82.52;101472.53;5075181;28;20025;-34
2022/10/10 10:43:12;;;;;;;8.68;2.92;;;;;;;15.24;81.12;101476.41;4973587;28;20415;-34
2022/10/10 10:45:52;;;;;;;7.53;2.97;;;;;;;15.22;80.93;101473.09;4973741;28;20106;-35
2022/10/10 10:48:44;;;;;;;8.60;2.90;;;;;;;15.10;80.67;101475.91;4973973;28;20070;-34
2022/10/10 10:51:12;;;;;;;5.63;3.00;;;;;;;15.03;80.83;101476.06;4971164;28;20071;-34
2022/10/10 10:54:08;;;;;;;7.25;2.92;;;;;;;15.20;81.51;101498.69;4973172;28;20043;-34
2022/10/10 10:56:48;;;;;;;6.60;3.00;;;;;;;15.34;81.65;101496.47;4973374;28;20046;-34
2022/10/10 10:59:23;;;;;;;9.85;3.05;;;;;;;15.55;80.40;101496.81;4973431;28;20030;-35
2022/10/10 11:01:59;;;;;;;6.63;2.60;;;;;;;15.70;78.90;101500.63;4973532;28;20035;-35
2022/10/10 11:04:52;;;;;;;7.75;3.10;;;;;;;15.69;79.40;101501.69;4973632;28;20044;-35
2022/10/10 11:07:26;;;;;;;5.22;2.83;;;;;;;15.60;79.04;101511.34;4973155;28;20115;-35
2022/10/10 11:09:58;;;;;;;7.90;3.22;;;;;;;15.50;79.66;101507.63;4973616;28;20050;-35
2022/10/10 11:12:26;;;;;;;7.40;3.33;;;;;;;15.46;79.80;101502.66;4973071;28;20412;-35
2022/10/10 11:15:23;;;;;;;7.10;3.30;;;;;;;15.57;80.38;101516.47;4973235;28;20042;-35
2022/10/10 11:18:02;;;;;;;7.28;2.90;;;;;;;15.72;80.48;101515.94;4972394;28;20101;-35
2022/10/10 11:20:50;;;;;;;9.70;3.22;;;;;;;15.89;80.31;101517.53;5056933;28;20485;-35
2022/10/10 11:23:21;;;;;;;5.38;3.08;;;;;;;16.05;78.98;101521.31;5074334;28;20154;-35
2022/10/10 11:25:51;;;;;;;7.63;3.20;;;;;;;16.16;77.91;101530.50;5073828;28;20024;-35
2022/10/10 11:28:32;;;;;;;8.90;3.28;;;;;;;16.25;78.10;101517.22;5074119;28;20443;-35
2022/10/10 11:31:09;;;;;;;8.18;3.55;;;;;;;16.34;77.07;101518.44;5073448;28;20025;-35
2022/10/10 11:33:39;;;;;;;6.72;3.25;;;;;;;16.42;77.08;101510.63;5074061;28;20055;-35
2022/10/10 11:36:18;;;;;;;6.85;3.28;;;;;;;16.58;77.33;101505.34;5074412;28;20029;-35
2022/10/10 11:38:58;;;;;;;11.65;3.65;;;;;;;16.58;75.73;101505.34;5074160;28;20025;-35